Time;durP1;ratioP1;P1;durP2;ratioP2;P2;SDS_P1;SDS_P2;PMS_P1;PMS_P2;Temp;Humidity;BMP_temperature;BMP_pressure;BME280_temperature;BME280_humidity;BME280_pressure;Samples;Min_cycle;Max_cycle;Signal;HPM_P1;HPM_P2
2024/02/18 00:06:58;;;;;;;9.30;4.95;;;10.80;50.80;;;;;;20510017;28;20077;-39
2024/02/18 00:16:58;;;;;;;11.23;4.80;;;10.80;47.10;;;;;;20525188;28;20031;-40
2024/02/18 00:26:59;;;;;;;13.18;4.90;;;10.90;44.30;;;;;;20526223;28;20125;-39
2024/02/18 00:36:59;;;;;;;10.65;5.05;;;10.80;43.70;;;;;;20523086;28;20078;-39
2024/02/18 00:47:00;;;;;;;10.38;4.95;;;10.80;48.70;;;;;;20522538;28;20046;-39
2024/02/18 00:57:03;;;;;;;12.23;5.50;;;10.90;45.20;;;;;;20531883;28;20042;-39
2024/02/18 01:07:04;;;;;;;13.75;5.03;;;10.90;45.10;;;;;;20530326;28;20047;-39
2024/02/18 01:17:04;;;;;;;12.98;5.05;;;10.90;46.70;;;;;;20526984;28;20035;-40
2024/02/18 01:27:05;;;;;;;12.30;5.00;;;10.90;47.90;;;;;;20490434;28;20051;-39
2024/02/18 01:37:06;;;;;;;12.65;4.97;;;11.00;49.20;;;;;;20441306;28;20046;-39
2024/02/18 01:47:07;;;;;;;13.25;4.95;;;11.00;50.90;;;;;;20449962;28;20493;-40
2024/02/18 01:57:07;;;;;;;13.52;4.93;;;11.10;46.90;;;;;;20456995;28;20074;-39
2024/02/18 02:07:08;;;;;;;12.43;4.57;;;11.20;44.50;;;;;;20447173;28;20066;-39
2024/02/18 02:17:10;;;;;;;12.27;4.13;;;11.30;37.20;;;;;;20462714;28;20043;-40
2024/02/18 02:27:15;;;;;;;8.40;4.30;;;11.40;36.30;;;;;;20497852;28;20074;-39
2024/02/18 02:37:16;;;;;;;11.38;3.95;;;11.40;34.10;;;;;;20536880;28;20144;-40
2024/02/18 02:47:17;;;;;;;8.45;4.15;;;11.40;29.50;;;;;;20534889;28;20060;-39
2024/02/18 02:57:17;;;;;;;9.53;4.30;;;11.20;31.20;;;;;;20542664;28;20038;-40
2024/02/18 03:07:18;;;;;;;15.27;4.47;;;11.10;42.40;;;;;;20525798;28;20473;-39
2024/02/18 03:17:19;;;;;;;9.82;4.50;;;11.00;60.80;;;;;;20518267;28;20563;-39
2024/02/18 03:27:19;;;;;;;14.73;4.32;;;10.70;85.10;;;;;;20522679;28;20065;-39
2024/02/18 03:37:20;;;;;;;9.15;3.95;;;10.60;98.60;;;;;;20972490;23;20038;-38
2024/02/18 03:47:23;;;;;;;10.13;3.70;;;10.60;99.90;;;;;;20596108;28;20115;-39
2024/02/18 03:57:23;;;;;;;8.20;3.53;;;10.50;99.90;;;;;;20605724;28;20394;-38
2024/02/18 04:07:24;;;;;;;7.88;3.30;;;10.50;99.90;;;;;;20615733;28;20133;-39
2024/02/18 04:17:25;;;;;;;10.75;3.65;;;10.50;95.60;;;;;;20616372;28;20084;-38
2024/02/18 04:27:26;;;;;;;6.30;2.70;;;10.50;92.20;;;;;;20621458;28;20085;-38
2024/02/18 04:37:27;;;;;;;6.32;2.63;;;10.50;88.00;;;;;;20617385;28;20054;-39
2024/02/18 04:47:29;;;;;;;10.33;3.30;;;10.40;90.00;;;;;;20605529;28;20049;-39
2024/02/18 04:57:29;;;;;;;10.07;3.20;;;10.40;92.30;;;;;;20667732;28;20473;-39
2024/02/18 05:07:31;;;;;;;11.30;3.30;;;10.30;92.70;;;;;;20696217;28;20092;-39
2024/02/18 05:17:31;;;;;;;9.23;3.40;;;10.30;93.30;;;;;;20677141;28;20037;-39
2024/02/18 05:27:32;;;;;;;9.25;3.80;;;10.20;93.80;;;;;;20682605;28;20045;-38
2024/02/18 05:37:33;;;;;;;8.65;3.45;;;10.20;90.60;;;;;;20685998;28;20479;-38
2024/02/18 05:47:34;;;;;;;10.73;3.50;;;10.10;94.30;;;;;;20689265;28;20046;-39
2024/02/18 05:57:34;;;;;;;9.10;3.35;;;10.00;99.10;;;;;;20676871;28;20043;-39
2024/02/18 06:07:35;;;;;;;12.10;4.35;;;9.90;99.90;;;;;;20675957;28;20041;-39
2024/02/18 06:17:36;;;;;;;9.95;3.63;;;9.90;99.90;;;;;;20667227;28;20128;-39
2024/02/18 06:27:36;;;;;;;14.53;3.57;;;9.90;99.90;;;;;;20670616;28;20026;-39
2024/02/18 06:37:37;;;;;;;13.45;3.75;;;9.80;99.90;;;;;;20673156;28;20845;-39
2024/02/18 06:47:37;;;;;;;10.98;4.32;;;9.70;99.90;;;;;;20689102;28;20112;-39
2024/02/18 06:57:41;;;;;;;14.50;3.87;;;9.80;99.90;;;;;;20693637;28;20037;-39
2024/02/18 07:07:42;;;;;;;10.52;3.70;;;9.70;99.90;;;;;;20687582;28;20904;-39
2024/02/18 07:17:43;;;;;;;11.10;3.30;;;9.70;99.90;;;;;;20689895;28;20062;-39
2024/02/18 07:27:43;;;;;;;11.63;3.47;;;9.70;99.90;;;;;;20691022;28;20046;-39
2024/02/18 07:37:44;;;;;;;8.20;3.67;;;9.60;99.90;;;;;;20685538;28;20181;-39
2024/02/18 07:47:45;;;;;;;11.10;3.40;;;9.60;99.90;;;;;;20678683;28;20065;-39
2024/02/18 07:57:45;;;;;;;11.50;3.92;;;9.60;99.90;;;;;;20686719;28;20366;-40
2024/02/18 08:07:46;;;;;;;12.95;3.30;;;9.60;99.90;;;;;;20682942;28;20286;-40
2024/02/18 08:17:47;;;;;;;9.40;3.47;;;9.40;99.90;;;;;;20670421;28;20405;-40
2024/02/18 08:27:47;;;;;;;11.75;3.55;;;9.40;99.90;;;;;;20663265;28;20052;-40
2024/02/18 08:37:49;;;;;;;11.48;3.95;;;9.50;99.90;;;;;;20669368;28;20042;-40
2024/02/18 08:47:50;;;;;;;9.73;3.90;;;9.50;99.90;;;;;;20674122;28;20097;-40
2024/02/18 08:57:51;;;;;;;10.00;3.35;;;9.50;99.90;;;;;;20672614;28;20033;-40
2024/02/18 09:07:52;;;;;;;6.47;3.22;;;9.50;99.90;;;;;;20674992;28;20129;-40
2024/02/18 09:17:52;;;;;;;8.68;3.70;;;9.50;99.90;;;;;;20656332;28;20429;-40
2024/02/18 09:27:53;;;;;;;9.07;3.45;;;9.50;99.90;;;;;;20657828;28;21481;-40
2024/02/18 09:37:54;;;;;;;9.40;3.90;;;9.50;99.90;;;;;;20618415;28;20788;-40
2024/02/18 09:47:57;;;;;;;11.82;4.40;;;9.60;99.90;;;;;;20642907;28;20052;-40
2024/02/18 09:57:58;;;;;;;11.45;4.68;;;9.50;99.90;;;;;;20663558;28;20038;-40
2024/02/18 10:08:02;;;;;;;11.33;4.57;;;9.60;99.90;;;;;;20664317;28;20050;-41
2024/02/18 10:18:05;;;;;;;10.27;4.63;;;9.40;99.90;;;;;;20677211;28;20508;-40
2024/02/18 10:28:06;;;;;;;11.88;5.32;;;9.50;99.90;;;;;;20674954;28;20068;-40
2024/02/18 10:38:11;;;;;;;10.17;4.60;;;9.40;99.90;;;;;;20667305;28;20049;-40
2024/02/18 10:48:14;;;;;;;12.10;5.35;;;9.50;99.90;;;;;;20668070;28;20456;-40
2024/02/18 10:58:57;;;;;;;16.48;5.93;;;9.40;99.90;;;;;;20676054;28;20151;-41
2024/02/18 11:08:59;;;;;;;13.93;5.90;;;9.30;99.90;;;;;;20673562;28;20664;-40
2024/02/18 11:19:01;;;;;;;9.75;5.80;;;9.40;99.90;;;;;;20667712;28;20398;-40
2024/02/18 11:29:02;;;;;;;12.50;5.80;;;9.30;99.90;;;;;;20692599;28;20445;-40
2024/02/18 11:39:06;;;;;;;12.52;5.78;;;9.30;99.90;;;;;;20693055;28;20046;-41
2024/02/18 11:49:07;;;;;;;11.05;5.50;;;9.40;99.90;;;;;;20676446;28;21679;-40
2024/02/18 11:59:08;;;;;;;12.23;5.60;;;9.30;99.90;;;;;;20682722;28;20537;-40
2024/02/18 12:09:14;;;;;;;10.50;5.55;;;9.20;99.90;;;;;;20686652;28;20418;-41
2024/02/18 12:19:15;;;;;;;7.55;4.82;;;9.20;99.90;;;;;;20680386;28;20128;-41
2024/02/18 12:29:16;;;;;;;8.57;4.28;;;9.30;99.90;;;;;;20666317;28;20493;-41
2024/02/18 12:39:16;;;;;;;7.10;4.13;;;9.30;99.90;;;;;;20656604;28;20069;-40
2024/02/18 12:49:19;;;;;;;7.90;3.87;;;9.40;99.90;;;;;;20661955;28;20033;-40
2024/02/18 12:59:19;;;;;;;8.98;3.90;;;9.40;99.90;;;;;;20659395;28;22113;-40
2024/02/18 13:09:26;;;;;;;5.10;3.60;;;9.50;99.90;;;;;;20666069;28;20113;-39
2024/02/18 13:19:27;;;;;;;4.85;3.83;;;9.40;99.90;;;;;;20664669;28;20334;-40
2024/02/18 13:29:28;;;;;;;5.82;3.88;;;9.40;99.90;;;;;;20658356;28;20065;-40
2024/02/18 13:39:29;;;;;;;7.35;5.30;;;9.50;99.90;;;;;;20651911;28;20665;-40
2024/02/18 13:49:29;;;;;;;7.78;6.20;;;9.60;99.90;;;;;;20651245;28;20494;-40
2024/02/18 13:59:30;;;;;;;7.57;5.85;;;9.60;99.90;;;;;;20678776;28;20042;-40
2024/02/18 14:09:32;;;;;;;8.60;5.45;;;9.90;99.90;;;;;;20636685;28;20471;-41
2024/02/18 14:19:33;;;;;;;7.43;5.80;;;10.10;99.90;;;;;;20657137;28;20386;-40
2024/02/18 14:29:34;;;;;;;8.93;5.43;;;10.20;99.90;;;;;;20675946;28;20418;-40
2024/02/18 14:39:34;;;;;;;5.00;3.27;;;10.40;99.90;;;;;;20676725;28;20046;-40
2024/02/18 14:49:35;;;;;;;3.77;1.40;;;10.50;99.90;;;;;;20701348;28;20129;-40
2024/02/18 14:59:36;;;;;;;2.97;0.80;;;10.60;99.90;;;;;;20686295;28;20472;-40
2024/02/18 15:09:36;;;;;;;2.35;0.70;;;10.60;99.90;;;;;;20685565;28;20025;-40
2024/02/18 15:19:37;;;;;;;2.33;0.70;;;10.70;99.90;;;;;;20692755;28;20456;-40
2024/02/18 15:29:37;;;;;;;2.28;0.70;;;10.70;99.90;;;;;;20680496;28;20041;-40
2024/02/18 15:39:38;;;;;;;7.25;1.10;;;10.80;99.90;;;;;;20678224;28;20057;-40
2024/02/18 15:49:38;;;;;;;6.22;1.50;;;10.80;99.90;;;;;;20684956;28;20133;-40
2024/02/18 15:59:39;;;;;;;7.15;0.90;;;10.70;99.90;;;;;;20691790;28;20038;-40
2024/02/18 16:09:49;;;;;;;5.50;1.00;;;10.50;99.90;;;;;;20690762;28;20034;-40
2024/02/18 16:19:49;;;;;;;4.40;0.70;;;10.40;99.90;;;;;;20692897;28;20045;-40
2024/02/18 16:29:50;;;;;;;2.75;0.45;;;10.30;99.90;;;;;;20693919;28;20562;-40
2024/02/18 16:39:52;;;;;;;9.70;1.58;;;10.10;99.90;;;;;;20692612;28;20161;-40
2024/02/18 16:49:53;;;;;;;8.45;1.30;;;10.00;99.90;;;;;;20687239;28;20042;-40
2024/02/18 16:59:54;;;;;;;14.27;2.70;;;9.90;99.90;;;;;;20700415;28;20061;-40
2024/02/18 17:09:54;;;;;;;26.02;2.83;;;9.90;99.90;;;;;;20708662;28;20443;-41
2024/02/18 17:19:55;;;;;;;14.47;3.07;;;9.70;99.90;;;;;;20696657;28;20409;-41
2024/02/18 17:29:56;;;;;;;18.80;2.80;;;9.70;99.90;;;;;;20695749;28;20563;-40
2024/02/18 17:39:57;;;;;;;15.45;2.13;;;9.60;99.90;;;;;;20635686;28;20545;-41
2024/02/18 17:49:58;;;;;;;14.50;1.50;;;9.60;99.90;;;;;;20609155;28;21069;-41
2024/02/18 18:00:00;;;;;;;10.57;1.65;;;9.60;99.90;;;;;;20611846;28;20101;-40
2024/02/18 18:10:02;;;;;;;11.93;3.75;;;9.70;99.90;;;;;;20603979;28;20062;-40
2024/02/18 18:20:04;;;;;;;12.15;2.35;;;9.60;99.90;;;;;;20604122;28;20529;-40
2024/02/18 18:30:06;;;;;;;15.20;2.38;;;9.60;99.90;;;;;;20611693;28;20034;-41
2024/02/18 18:40:07;;;;;;;13.73;3.08;;;9.60;99.90;;;;;;20685955;28;20048;-40
2024/02/18 18:50:08;;;;;;;14.45;4.15;;;9.60;99.90;;;;;;20648813;28;20042;-40
2024/02/18 19:00:09;;;;;;;23.48;5.70;;;9.50;99.90;;;;;;20697431;28;20045;-41
2024/02/18 19:10:10;;;;;;;25.27;5.30;;;9.40;99.90;;;;;;20704941;28;20077;-44
2024/02/18 19:20:11;;;;;;;18.90;4.67;;;9.50;99.90;;;;;;20706323;28;20067;-41
2024/02/18 19:30:14;;;;;;;17.77;3.33;;;9.60;99.90;;;;;;20692289;28;20484;-40
2024/02/18 19:40:14;;;;;;;30.55;4.00;;;9.50;99.90;;;;;;20641497;28;20084;-40
2024/02/18 19:50:15;;;;;;;22.63;4.20;;;9.40;99.90;;;;;;20706674;28;20038;-40
2024/02/18 20:00:16;;;;;;;21.80;5.30;;;9.60;99.90;;;;;;20703970;28;20041;-39
2024/02/18 20:10:17;;;;;;;27.50;3.80;;;9.40;99.90;;;;;;20699580;28;20444;-40
2024/02/18 20:20:20;;;;;;;13.38;4.68;;;9.40;99.90;;;;;;20685452;28;20064;-39
2024/02/18 20:30:22;;;;;;;24.90;3.60;;;9.30;99.90;;;;;;20685748;28;20046;-39
2024/02/18 20:40:23;;;;;;;22.73;4.32;;;9.30;99.90;;;;;;20685753;28;20046;-39
2024/02/18 20:50:24;;;;;;;24.17;4.40;;;9.20;99.90;;;;;;20685302;28;20033;-38
2024/02/18 21:00:26;;;;;;;20.40;3.85;;;9.30;99.90;;;;;;20681265;28;20157;-39
2024/02/18 21:10:28;;;;;;;17.45;4.15;;;9.30;99.90;;;;;;20669190;28;20038;-39
2024/02/18 21:20:28;;;;;;;21.75;4.57;;;9.20;99.90;;;;;;20689644;28;20038;-39
2024/02/18 21:30:29;;;;;;;31.88;5.82;;;9.30;99.90;;;;;;20699490;28;20040;-39
2024/02/18 21:40:30;;;;;;;28.02;5.18;;;9.30;99.90;;;;;;20694708;28;20049;-39
2024/02/18 21:50:31;;;;;;;26.38;5.03;;;9.20;99.90;;;;;;20692034;28;20042;-39
2024/02/18 22:00:32;;;;;;;17.90;3.83;;;9.20;99.90;;;;;;20693194;28;20610;-41
2024/02/18 22:10:33;;;;;;;20.55;3.67;;;9.20;99.90;;;;;;20688333;28;20468;-39
2024/02/18 22:20:35;;;;;;;23.50;3.63;;;9.10;99.90;;;;;;20698871;28;20568;-39
2024/02/18 22:30:35;;;;;;;31.33;4.90;;;9.10;99.90;;;;;;20702685;28;20045;-39
2024/02/18 22:40:36;;;;;;;32.85;7.72;;;9.00;99.90;;;;;;20703027;28;20054;-38
2024/02/18 22:50:36;;;;;;;33.35;5.03;;;9.00;99.90;;;;;;20703561;28;20116;-38
2024/02/18 23:00:38;;;;;;;28.42;5.00;;;9.00;99.90;;;;;;20699990;28;20088;-38
2024/02/18 23:10:39;;;;;;;35.38;5.38;;;9.10;99.90;;;;;;20700048;28;20073;-39
2024/02/18 23:20:39;;;;;;;29.80;4.03;;;9.00;99.90;;;;;;20704405;28;20121;-38
2024/02/18 23:30:40;;;;;;;39.38;4.68;;;9.00;99.90;;;;;;20701699;28;20965;-40
2024/02/18 23:40:41;;;;;;;22.83;3.88;;;9.10;99.90;;;;;;20701461;28;20330;-40
2024/02/18 23:50:41;;;;;;;24.15;3.13;;;9.00;99.90;;;;;;20701572;28;20104;-40
